sensor_id;sensor_type;location;lat;lon;timestamp;pressure;altitude;pressure_sealevel;temperature;humidity
9249;BME280;4660;41.768;26.198;2023-02-28T00:00:34;101410.00;;;15.81;100.00
9249;BME280;4660;41.768;26.198;2023-02-28T00:03:01;101411.06;;;15.88;100.00
9249;BME280;4660;41.768;26.198;2023-02-28T00:05:28;101423.84;;;15.95;100.00
9249;BME280;4660;41.768;26.198;2023-02-28T00:07:55;101424.81;;;15.68;100.00
9249;BME280;4660;41.768;26.198;2023-02-28T00:10:29;101392.53;;;15.22;100.00
9249;BME280;4660;41.768;26.198;2023-02-28T00:13:03;101419.16;;;15.26;100.00
9249;BME280;4660;41.768;26.198;2023-02-28T00:15:34;101409.84;;;15.11;100.00
9249;BME280;4660;41.768;26.198;2023-02-28T00:18:02;101425.09;;;15.12;100.00
9249;BME280;4660;41.768;26.198;2023-02-28T00:20:29;101417.91;;;15.21;100.00
9249;BME280;4660;41.768;26.198;2023-02-28T00:22:55;101418.00;;;15.47;100.00
9249;BME280;4660;41.768;26.198;2023-02-28T00:25:23;101415.97;;;15.49;100.00
9249;BME280;4660;41.768;26.198;2023-02-28T00:27:51;101417.44;;;15.61;100.00
9249;BME280;4660;41.768;26.198;2023-02-28T00:30:20;101420.84;;;15.81;100.00
9249;BME280;4660;41.768;26.198;2023-02-28T00:32:50;101417.97;;;15.82;100.00
9249;BME280;4660;41.768;26.198;2023-02-28T00:35:17;101423.84;;;15.78;100.00
9249;BME280;4660;41.768;26.198;2023-02-28T00:37:44;101429.06;;;15.89;100.00
9249;BME280;4660;41.768;26.198;2023-02-28T00:40:12;101431.75;;;15.89;100.00
9249;BME280;4660;41.768;26.198;2023-02-28T00:42:39;101448.03;;;15.89;100.00
9249;BME280;4660;41.768;26.198;2023-02-28T00:45:07;101446.34;;;15.52;100.00
9249;BME280;4660;41.768;26.198;2023-02-28T00:47:34;101451.53;;;15.28;100.00
9249;BME280;4660;41.768;26.198;2023-02-28T00:50:03;101447.34;;;15.16;100.00
9249;BME280;4660;41.768;26.198;2023-02-28T00:52:33;101450.34;;;14.95;100.00
9249;BME280;4660;41.768;26.198;2023-02-28T00:55:00;101444.66;;;14.88;100.00
9249;BME280;4660;41.768;26.198;2023-02-28T00:57:28;101442.91;;;14.97;100.00
9249;BME280;4660;41.768;26.198;2023-02-28T00:59:54;101446.03;;;15.20;100.00
9249;BME280;4660;41.768;26.198;2023-02-28T01:02:22;101454.63;;;15.33;100.00
9249;BME280;4660;41.768;26.198;2023-02-28T01:04:49;101449.00;;;15.44;100.00
9249;BME280;4660;41.768;26.198;2023-02-28T01:07:15;101450.69;;;15.45;100.00
9249;BME280;4660;41.768;26.198;2023-02-28T01:09:41;101453.41;;;15.45;100.00
9249;BME280;4660;41.768;26.198;2023-02-28T01:12:10;101457.66;;;15.48;100.00
9249;BME280;4660;41.768;26.198;2023-02-28T01:14:37;101454.03;;;15.39;100.00
9249;BME280;4660;41.768;26.198;2023-02-28T01:17:04;101445.88;;;15.39;100.00
9249;BME280;4660;41.768;26.198;2023-02-28T01:19:31;101457.13;;;15.44;100.00
9249;BME280;4660;41.768;26.198;2023-02-28T01:22:05;101448.19;;;15.34;100.00
9249;BME280;4660;41.768;26.198;2023-02-28T01:24:53;101450.13;;;15.41;100.00
9249;BME280;4660;41.768;26.198;2023-02-28T01:27:21;101452.31;;;15.38;100.00
9249;BME280;4660;41.768;26.198;2023-02-28T01:29:50;101443.72;;;15.25;100.00
9249;BME280;4660;41.768;26.198;2023-02-28T01:32:17;101456.41;;;15.24;100.00
9249;BME280;4660;41.768;26.198;2023-02-28T01:34:44;101458.81;;;15.09;100.00
9249;BME280;4660;41.768;26.198;2023-02-28T01:37:10;101453.53;;;15.08;100.00
9249;BME280;4660;41.768;26.198;2023-02-28T01:39:37;101451.97;;;15.05;100.00
9249;BME280;4660;41.768;26.198;2023-02-28T01:42:03;101446.44;;;14.79;100.00
9249;BME280;4660;41.768;26.198;2023-02-28T01:45:04;101455.53;;;14.78;100.00
9249;BME280;4660;41.768;26.198;2023-02-28T01:47:36;101459.81;;;14.81;100.00
9249;BME280;4660;41.768;26.198;2023-02-28T01:50:10;101457.91;;;14.64;100.00
9249;BME280;4660;41.768;26.198;2023-02-28T01:52:48;101466.16;;;14.72;100.00
9249;BME280;4660;41.768;26.198;2023-02-28T01:55:18;101458.75;;;14.92;100.00
9249;BME280;4660;41.768;26.198;2023-02-28T01:57:52;101464.31;;;15.18;100.00
9249;BME280;4660;41.768;26.198;2023-02-28T02:00:24;101466.72;;;15.38;100.00
9249;BME280;4660;41.768;26.198;2023-02-28T02:02:59;101468.75;;;15.36;100.00
9249;BME280;4660;41.768;26.198;2023-02-28T02:05:38;101456.41;;;15.24;100.00
9249;BME280;4660;41.768;26.198;2023-02-28T02:08:12;101463.22;;;15.10;100.00
9249;BME280;4660;41.768;26.198;2023-02-28T02:10:50;101470.00;;;14.97;100.00
9249;BME280;4660;41.768;26.198;2023-02-28T02:13:41;101463.72;;;14.96;100.00
9249;BME280;4660;41.768;26.198;2023-02-28T02:16:52;101464.13;;;15.01;100.00
9249;BME280;4660;41.768;26.198;2023-02-28T02:30:58;101483.84;;;15.39;100.00
9249;BME280;4660;41.768;26.198;2023-02-28T02:37:13;101502.66;;;14.95;100.00
9249;BME280;4660;41.768;26.198;2023-02-28T02:40:03;101503.88;;;14.83;100.00
9249;BME280;4660;41.768;26.198;2023-02-28T02:42:54;101502.81;;;14.66;100.00
9249;BME280;4660;41.768;26.198;2023-02-28T02:45:42;101498.44;;;14.46;100.00
9249;BME280;4660;41.768;26.198;2023-02-28T02:48:13;101487.22;;;14.31;100.00
9249;BME280;4660;41.768;26.198;2023-02-28T02:50:50;101482.16;;;14.55;100.00
9249;BME280;4660;41.768;26.198;2023-02-28T02:53:32;101488.84;;;14.61;100.00
9249;BME280;4660;41.768;26.198;2023-02-28T02:56:01;101489.66;;;14.71;100.00
9249;BME280;4660;41.768;26.198;2023-02-28T02:58:40;101484.22;;;14.71;100.00
9249;BME280;4660;41.768;26.198;2023-02-28T03:01:14;101495.03;;;14.81;100.00
9249;BME280;4660;41.768;26.198;2023-02-28T03:03:41;101484.81;;;14.75;100.00
9249;BME280;4660;41.768;26.198;2023-02-28T03:06:10;101504.56;;;14.85;100.00
9249;BME280;4660;41.768;26.198;2023-02-28T03:08:38;101514.91;;;14.72;100.00
9249;BME280;4660;41.768;26.198;2023-02-28T03:11:15;101519.69;;;14.78;100.00
9249;BME280;4660;41.768;26.198;2023-02-28T03:14:03;101517.72;;;14.80;100.00
9249;BME280;4660;41.768;26.198;2023-02-28T03:31:00;101522.97;;;14.25;100.00
9249;BME280;4660;41.768;26.198;2023-02-28T03:33:44;101501.09;;;13.89;100.00
9249;BME280;4660;41.768;26.198;2023-02-28T03:36:16;101510.50;;;13.95;100.00
9249;BME280;4660;41.768;26.198;2023-02-28T03:39:02;101515.47;;;13.90;100.00
9249;BME280;4660;41.768;26.198;2023-02-28T03:41:35;101512.03;;;13.78;100.00
9249;BME280;4660;41.768;26.198;2023-02-28T03:44:35;101522.16;;;13.86;100.00
9249;BME280;4660;41.768;26.198;2023-02-28T03:47:09;101518.47;;;13.96;100.00
9249;BME280;4660;41.768;26.198;2023-02-28T03:49:46;101519.59;;;13.84;100.00
9249;BME280;4660;41.768;26.198;2023-02-28T03:52:15;101525.31;;;13.81;100.00
9249;BME280;4660;41.768;26.198;2023-02-28T03:55:04;101529.13;;;13.69;100.00
9249;BME280;4660;41.768;26.198;2023-02-28T03:58:31;101522.72;;;13.70;100.00
9249;BME280;4660;41.768;26.198;2023-02-28T04:01:03;101530.13;;;13.68;100.00
9249;BME280;4660;41.768;26.198;2023-02-28T04:03:38;101537.22;;;13.49;100.00
9249;BME280;4660;41.768;26.198;2023-02-28T04:06:08;101539.47;;;13.35;100.00
9249;BME280;4660;41.768;26.198;2023-02-28T04:08:39;101539.19;;;13.28;100.00
9249;BME280;4660;41.768;26.198;2023-02-28T04:14:13;101543.09;;;13.14;100.00
9249;BME280;4660;41.768;26.198;2023-02-28T04:16:41;101544.88;;;13.25;100.00
9249;BME280;4660;41.768;26.198;2023-02-28T04:19:09;101545.31;;;13.30;100.00
9249;BME280;4660;41.768;26.198;2023-02-28T04:21:47;101557.41;;;13.36;100.00
9249;BME280;4660;41.768;26.198;2023-02-28T04:24:20;101573.91;;;13.33;100.00
9249;BME280;4660;41.768;26.198;2023-02-28T04:26:58;101577.59;;;13.22;100.00
9249;BME280;4660;41.768;26.198;2023-02-28T04:29:30;101581.00;;;13.34;100.00
9249;BME280;4660;41.768;26.198;2023-02-28T04:32:03;101588.97;;;13.35;100.00
9249;BME280;4660;41.768;26.198;2023-02-28T04:34:31;101589.47;;;13.19;100.00
9249;BME280;4660;41.768;26.198;2023-02-28T04:37:00;101596.56;;;13.11;100.00
9249;BME280;4660;41.768;26.198;2023-02-28T04:39:29;101598.22;;;13.02;100.00
9249;BME280;4660;41.768;26.198;2023-02-28T04:41:56;101598.78;;;12.96;100.00
9249;BME280;4660;41.768;26.198;2023-02-28T04:44:22;101609.19;;;13.01;100.00
9249;BME280;4660;41.768;26.198;2023-02-28T04:46:49;101619.25;;;12.99;100.00
9249;BME280;4660;41.768;26.198;2023-02-28T04:49:17;101622.22;;;12.95;100.00
9249;BME280;4660;41.768;26.198;2023-02-28T04:51:44;101619.78;;;12.92;100.00
9249;BME280;4660;41.768;26.198;2023-02-28T04:54:13;101584.16;;;12.78;100.00
9249;BME280;4660;41.768;26.198;2023-02-28T04:56:43;101622.78;;;12.99;100.00
9249;BME280;4660;41.768;26.198;2023-02-28T04:59:09;101617.97;;;12.93;100.00
9249;BME280;4660;41.768;26.198;2023-02-28T05:01:36;101608.06;;;12.82;100.00
9249;BME280;4660;41.768;26.198;2023-02-28T05:04:05;101637.25;;;12.88;100.00
9249;BME280;4660;41.768;26.198;2023-02-28T05:06:33;101638.69;;;12.92;100.00
9249;BME280;4660;41.768;26.198;2023-02-28T05:08:58;101644.56;;;12.77;100.00
9249;BME280;4660;41.768;26.198;2023-02-28T05:11:31;101655.84;;;12.82;100.00
9249;BME280;4660;41.768;26.198;2023-02-28T05:14:13;101655.13;;;12.59;100.00
9249;BME280;4660;41.768;26.198;2023-02-28T05:16:40;101647.75;;;12.61;100.00
9249;BME280;4660;41.768;26.198;2023-02-28T05:19:07;101651.25;;;12.73;100.00
9249;BME280;4660;41.768;26.198;2023-02-28T05:21:41;101645.97;;;12.50;100.00
9249;BME280;4660;41.768;26.198;2023-02-28T05:24:14;101642.94;;;12.44;100.00
9249;BME280;4660;41.768;26.198;2023-02-28T05:26:42;101665.25;;;12.46;100.00
9249;BME280;4660;41.768;26.198;2023-02-28T05:29:10;101663.91;;;12.40;100.00
9249;BME280;4660;41.768;26.198;2023-02-28T05:31:37;101670.56;;;12.57;100.00
9249;BME280;4660;41.768;26.198;2023-02-28T05:34:03;101683.78;;;12.50;100.00
9249;BME280;4660;41.768;26.198;2023-02-28T05:36:32;101684.22;;;12.55;100.00
9249;BME280;4660;41.768;26.198;2023-02-28T05:38:59;101681.94;;;12.72;100.00
9249;BME280;4660;41.768;26.198;2023-02-28T05:41:25;101684.75;;;12.70;100.00
9249;BME280;4660;41.768;26.198;2023-02-28T05:43:51;101697.91;;;12.84;100.00
9249;BME280;4660;41.768;26.198;2023-02-28T05:46:17;101696.22;;;12.83;100.00
9249;BME280;4660;41.768;26.198;2023-02-28T05:48:46;101687.41;;;12.81;100.00
9249;BME280;4660;41.768;26.198;2023-02-28T05:51:13;101666.78;;;12.80;100.00
9249;BME280;4660;41.768;26.198;2023-02-28T05:53:40;101699.91;;;13.03;100.00
9249;BME280;4660;41.768;26.198;2023-02-28T05:56:05;101687.69;;;13.09;100.00
9249;BME280;4660;41.768;26.198;2023-02-28T05:58:32;101669.78;;;13.08;100.00
9249;BME280;4660;41.768;26.198;2023-02-28T06:01:40;101707.72;;;13.06;100.00
9249;BME280;4660;41.768;26.198;2023-02-28T06:04:09;101719.19;;;13.19;100.00
9249;BME280;4660;41.768;26.198;2023-02-28T06:06:39;101713.66;;;13.21;100.00
9249;BME280;4660;41.768;26.198;2023-02-28T06:09:06;101718.16;;;13.32;100.00
9249;BME280;4660;41.768;26.198;2023-02-28T06:11:34;101721.22;;;13.06;100.00
9249;BME280;4660;41.768;26.198;2023-02-28T06:14:01;101715.91;;;12.95;100.00
9249;BME280;4660;41.768;26.198;2023-02-28T06:16:29;101718.63;;;12.95;100.00
9249;BME280;4660;41.768;26.198;2023-02-28T06:18:58;101726.19;;;13.01;100.00
9249;BME280;4660;41.768;26.198;2023-02-28T06:21:24;101727.44;;;13.18;100.00
9249;BME280;4660;41.768;26.198;2023-02-28T06:23:51;101724.47;;;13.00;100.00
9249;BME280;4660;41.768;26.198;2023-02-28T06:26:18;101740.94;;;12.97;100.00
9249;BME280;4660;41.768;26.198;2023-02-28T06:28:44;101739.91;;;13.30;100.00
9249;BME280;4660;41.768;26.198;2023-02-28T06:31:13;101739.81;;;13.41;100.00
9249;BME280;4660;41.768;26.198;2023-02-28T06:33:41;101732.13;;;13.37;100.00
9249;BME280;4660;41.768;26.198;2023-02-28T06:36:11;101733.09;;;13.36;100.00
9249;BME280;4660;41.768;26.198;2023-02-28T06:38:40;101735.66;;;13.16;100.00
9249;BME280;4660;41.768;26.198;2023-02-28T06:41:07;101750.25;;;13.25;100.00
9249;BME280;4660;41.768;26.198;2023-02-28T06:43:46;101747.03;;;13.31;100.00
9249;BME280;4660;41.768;26.198;2023-02-28T06:46:16;101747.34;;;13.38;100.00
9249;BME280;4660;41.768;26.198;2023-02-28T06:48:43;101750.19;;;13.36;100.00
9249;BME280;4660;41.768;26.198;2023-02-28T06:51:15;101743.78;;;13.37;100.00
9249;BME280;4660;41.768;26.198;2023-02-28T06:53:48;101743.19;;;13.34;100.00
9249;BME280;4660;41.768;26.198;2023-02-28T06:56:16;101748.44;;;13.35;100.00
9249;BME280;4660;41.768;26.198;2023-02-28T06:58:52;101754.25;;;13.52;100.00
9249;BME280;4660;41.768;26.198;2023-02-28T07:01:20;101754.66;;;13.57;100.00
9249;BME280;4660;41.768;26.198;2023-02-28T07:03:53;101731.75;;;13.51;100.00
9249;BME280;4660;41.768;26.198;2023-02-28T07:06:22;101765.78;;;13.54;100.00
9249;BME280;4660;41.768;26.198;2023-02-28T07:08:52;101771.47;;;13.51;100.00
9249;BME280;4660;41.768;26.198;2023-02-28T07:11:21;101764.91;;;13.53;100.00
9249;BME280;4660;41.768;26.198;2023-02-28T07:13:49;101769.19;;;13.56;100.00
9249;BME280;4660;41.768;26.198;2023-02-28T07:16:21;101752.25;;;13.54;100.00
9249;BME280;4660;41.768;26.198;2023-02-28T07:18:49;101753.88;;;13.66;100.00
9249;BME280;4660;41.768;26.198;2023-02-28T07:21:19;101753.03;;;13.65;100.00
9249;BME280;4660;41.768;26.198;2023-02-28T07:23:46;101765.66;;;13.95;100.00
9249;BME280;4660;41.768;26.198;2023-02-28T07:26:15;101769.94;;;13.98;100.00
9249;BME280;4660;41.768;26.198;2023-02-28T07:28:54;101760.94;;;13.88;100.00
9249;BME280;4660;41.768;26.198;2023-02-28T07:31:21;101769.78;;;13.99;100.00
9249;BME280;4660;41.768;26.198;2023-02-28T07:33:48;101774.22;;;14.00;100.00
9249;BME280;4660;41.768;26.198;2023-02-28T07:36:17;101771.78;;;13.97;100.00
9249;BME280;4660;41.768;26.198;2023-02-28T07:38:47;101776.41;;;14.16;100.00
9249;BME280;4660;41.768;26.198;2023-02-28T07:41:19;101774.69;;;14.15;100.00
9249;BME280;4660;41.768;26.198;2023-02-28T07:43:47;101765.38;;;13.98;100.00
9249;BME280;4660;41.768;26.198;2023-02-28T07:46:16;101753.16;;;14.14;100.00
9249;BME280;4660;41.768;26.198;2023-02-28T07:48:44;101768.25;;;14.07;100.00
9249;BME280;4660;41.768;26.198;2023-02-28T07:51:12;101746.88;;;14.03;100.00
9249;BME280;4660;41.768;26.198;2023-02-28T07:53:40;101748.91;;;14.21;100.00
9249;BME280;4660;41.768;26.198;2023-02-28T07:56:10;101756.31;;;14.19;100.00
9249;BME280;4660;41.768;26.198;2023-02-28T07:58:45;101742.94;;;14.17;100.00
9249;BME280;4660;41.768;26.198;2023-02-28T08:01:13;101765.75;;;14.34;100.00
9249;BME280;4660;41.768;26.198;2023-02-28T08:03:43;101753.50;;;14.40;100.00
9249;BME280;4660;41.768;26.198;2023-02-28T08:06:19;101760.38;;;14.44;100.00
9249;BME280;4660;41.768;26.198;2023-02-28T08:08:50;101751.59;;;14.21;100.00
9249;BME280;4660;41.768;26.198;2023-02-28T08:11:17;101759.31;;;14.35;100.00
9249;BME280;4660;41.768;26.198;2023-02-28T08:13:47;101756.31;;;14.19;100.00
9249;BME280;4660;41.768;26.198;2023-02-28T08:16:14;101770.16;;;14.35;100.00
9249;BME280;4660;41.768;26.198;2023-02-28T08:18:44;101770.44;;;14.32;100.00
9249;BME280;4660;41.768;26.198;2023-02-28T08:21:11;101770.56;;;14.21;100.00
9249;BME280;4660;41.768;26.198;2023-02-28T08:23:38;101757.41;;;14.07;100.00
9249;BME280;4660;41.768;26.198;2023-02-28T08:26:06;101770.00;;;14.27;100.00
9249;BME280;4660;41.768;26.198;2023-02-28T08:28:33;101766.34;;;14.38;100.00
9249;BME280;4660;41.768;26.198;2023-02-28T08:31:00;101765.44;;;14.18;100.00
9249;BME280;4660;41.768;26.198;2023-02-28T08:33:27;101776.34;;;14.47;100.00
9249;BME280;4660;41.768;26.198;2023-02-28T08:35:55;101780.34;;;14.52;100.00
9249;BME280;4660;41.768;26.198;2023-02-28T08:38:24;101773.22;;;14.01;100.00
9249;BME280;4660;41.768;26.198;2023-02-28T08:40:58;101771.56;;;14.20;100.00
9249;BME280;4660;41.768;26.198;2023-02-28T08:43:24;101768.28;;;14.26;100.00
9249;BME280;4660;41.768;26.198;2023-02-28T08:45:55;101771.59;;;14.39;100.00
9249;BME280;4660;41.768;26.198;2023-02-28T08:48:29;101773.78;;;14.55;100.00
9249;BME280;4660;41.768;26.198;2023-02-28T08:51:12;101773.22;;;14.71;100.00
9249;BME280;4660;41.768;26.198;2023-02-28T08:53:59;101778.06;;;14.48;100.00
9249;BME280;4660;41.768;26.198;2023-02-28T08:56:27;101771.03;;;14.45;100.00
9249;BME280;4660;41.768;26.198;2023-02-28T08:58:56;101763.53;;;14.78;100.00
9249;BME280;4660;41.768;26.198;2023-02-28T09:01:26;101760.22;;;15.03;100.00
9249;BME280;4660;41.768;26.198;2023-02-28T09:03:54;101761.09;;;14.94;100.00
9249;BME280;4660;41.768;26.198;2023-02-28T09:06:24;101761.94;;;15.04;100.00
9249;BME280;4660;41.768;26.198;2023-02-28T09:08:52;101758.31;;;15.33;100.00
9249;BME280;4660;41.768;26.198;2023-02-28T09:11:22;101763.72;;;15.33;100.00
9249;BME280;4660;41.768;26.198;2023-02-28T09:13:49;101758.47;;;15.31;100.00
9249;BME280;4660;41.768;26.198;2023-02-28T09:16:17;101750.75;;;15.36;100.00
9249;BME280;4660;41.768;26.198;2023-02-28T09:18:44;101735.25;;;15.09;100.00
9249;BME280;4660;41.768;26.198;2023-02-28T09:21:13;101767.22;;;15.06;100.00
9249;BME280;4660;41.768;26.198;2023-02-28T09:23:44;101763.53;;;14.88;100.00
9249;BME280;4660;41.768;26.198;2023-02-28T09:26:17;101760.34;;;15.11;100.00
9249;BME280;4660;41.768;26.198;2023-02-28T09:28:44;101771.63;;;15.07;100.00
9249;BME280;4660;41.768;26.198;2023-02-28T09:31:14;101764.66;;;15.04;100.00
9249;BME280;4660;41.768;26.198;2023-02-28T09:33:48;101754.34;;;15.18;100.00
9249;BME280;4660;41.768;26.198;2023-02-28T09:36:16;101760.53;;;14.81;100.00
9249;BME280;4660;41.768;26.198;2023-02-28T09:38:42;101733.31;;;14.73;100.00
9249;BME280;4660;41.768;26.198;2023-02-28T09:41:15;101750.41;;;15.02;100.00
9249;BME280;4660;41.768;26.198;2023-02-28T09:44:06;101770.72;;;15.35;100.00
9249;BME280;4660;41.768;26.198;2023-02-28T09:46:47;101740.88;;;15.45;100.00
9249;BME280;4660;41.768;26.198;2023-02-28T09:49:33;101747.16;;;15.46;100.00
9249;BME280;4660;41.768;26.198;2023-02-28T09:52:05;101757.03;;;15.37;100.00
9249;BME280;4660;41.768;26.198;2023-02-28T09:54:36;101753.19;;;15.30;100.00
9249;BME280;4660;41.768;26.198;2023-02-28T09:57:38;101752.91;;;15.13;100.00
9249;BME280;4660;41.768;26.198;2023-02-28T10:00:33;101744.28;;;14.71;100.00
9249;BME280;4660;41.768;26.198;2023-02-28T10:03:42;101744.94;;;15.12;100.00
9249;BME280;4660;41.768;26.198;2023-02-28T10:06:19;101743.47;;;15.27;100.00
9249;BME280;4660;41.768;26.198;2023-02-28T10:09:08;101742.00;;;15.52;100.00
9249;BME280;4660;41.768;26.198;2023-02-28T10:11:41;101735.28;;;15.84;100.00
9249;BME280;4660;41.768;26.198;2023-02-28T10:14:24;101719.94;;;15.75;100.00
9249;BME280;4660;41.768;26.198;2023-02-28T10:16:55;101733.78;;;15.72;100.00
9249;BME280;4660;41.768;26.198;2023-02-28T10:19:42;101742.81;;;15.62;100.00
9249;BME280;4660;41.768;26.198;2023-02-28T10:25:25;101733.38;;;15.57;100.00
9249;BME280;4660;41.768;26.198;2023-02-28T10:28:14;101717.78;;;15.31;100.00
9249;BME280;4660;41.768;26.198;2023-02-28T10:30:51;101713.31;;;15.03;100.00
9249;BME280;4660;41.768;26.198;2023-02-28T10:33:35;101708.50;;;14.87;100.00
9249;BME280;4660;41.768;26.198;2023-02-28T10:36:03;101703.09;;;14.68;100.00
9249;BME280;4660;41.768;26.198;2023-02-28T10:38:40;101687.66;;;14.78;100.00
9249;BME280;4660;41.768;26.198;2023-02-28T10:41:15;101712.03;;;14.97;100.00
9249;BME280;4660;41.768;26.198;2023-02-28T10:43:46;101701.34;;;14.96;100.00
9249;BME280;4660;41.768;26.198;2023-02-28T10:46:18;101670.84;;;14.94;100.00
9249;BME280;4660;41.768;26.198;2023-02-28T10:49:12;101667.97;;;14.85;100.00
9249;BME280;4660;41.768;26.198;2023-02-28T10:51:41;101675.31;;;14.66;100.00
9249;BME280;4660;41.768;26.198;2023-02-28T10:54:27;101679.69;;;14.57;100.00
9249;BME280;4660;41.768;26.198;2023-02-28T10:57:17;101680.69;;;14.75;100.00
9249;BME280;4660;41.768;26.198;2023-02-28T10:59:45;101678.72;;;14.68;100.00
9249;BME280;4660;41.768;26.198;2023-02-28T11:02:33;101667.72;;;14.79;100.00
9249;BME280;4660;41.768;26.198;2023-02-28T11:05:01;101666.72;;;14.80;100.00
9249;BME280;4660;41.768;26.198;2023-02-28T11:07:31;101633.53;;;14.58;100.00
9249;BME280;4660;41.768;26.198;2023-02-28T11:09:58;101666.84;;;14.88;100.00
9249;BME280;4660;41.768;26.198;2023-02-28T11:12:38;101668.53;;;14.89;100.00
9249;BME280;4660;41.768;26.198;2023-02-28T11:15:27;101670.94;;;14.92;100.00
9249;BME280;4660;41.768;26.198;2023-02-28T11:18:01;101669.97;;;14.93;100.00
9249;BME280;4660;41.768;26.198;2023-02-28T11:20:33;101675.78;;;14.98;100.00
9249;BME280;4660;41.768;26.198;2023-02-28T11:23:13;101662.50;;;15.05;100.00
9249;BME280;4660;41.768;26.198;2023-02-28T11:25:50;101659.94;;;15.03;100.00
9249;BME280;4660;41.768;26.198;2023-02-28T11:28:35;101666.19;;;15.13;100.00
9249;BME280;4660;41.768;26.198;2023-02-28T11:31:18;101666.34;;;15.12;100.00
9249;BME280;4660;41.768;26.198;2023-02-28T11:36:25;101662.13;;;15.27;100.00
9249;BME280;4660;41.768;26.198;2023-02-28T11:39:10;101663.19;;;15.17;100.00
9249;BME280;4660;41.768;26.198;2023-02-28T11:52:54;101659.59;;;15.26;100.00
9249;BME280;4660;41.768;26.198;2023-02-28T11:55:30;101650.84;;;14.85;100.00
9249;BME280;4660;41.768;26.198;2023-02-28T12:01:24;101642.50;;;14.30;100.00
9249;BME280;4660;41.768;26.198;2023-02-28T12:19:34;101642.47;;;13.91;100.00
9249;BME280;4660;41.768;26.198;2023-02-28T12:28:31;101633.69;;;14.09;100.00
9249;BME280;4660;41.768;26.198;2023-02-28T12:31:24;101635.34;;;13.90;100.00
9249;BME280;4660;41.768;26.198;2023-02-28T12:34:20;101629.13;;;13.40;100.00
9249;BME280;4660;41.768;26.198;2023-02-28T12:37:02;101635.13;;;13.43;100.00
9249;BME280;4660;41.768;26.198;2023-02-28T12:39:39;101626.25;;;13.32;100.00
9249;BME280;4660;41.768;26.198;2023-02-28T12:42:15;101624.22;;;13.24;100.00
9249;BME280;4660;41.768;26.198;2023-02-28T12:44:51;101619.16;;;13.10;100.00
9249;BME280;4660;41.768;26.198;2023-02-28T12:47:19;101623.84;;;13.08;100.00
9249;BME280;4660;41.768;26.198;2023-02-28T12:50:05;101623.41;;;13.03;100.00
9249;BME280;4660;41.768;26.198;2023-02-28T12:53:01;101625.78;;;12.96;100.00
9249;BME280;4660;41.768;26.198;2023-02-28T12:58:39;101640.44;;;13.24;100.00
9249;BME280;4660;41.768;26.198;2023-02-28T13:09:36;101622.97;;;12.56;100.00
9249;BME280;4660;41.768;26.198;2023-02-28T13:12:13;101637.41;;;12.66;100.00
9249;BME280;4660;41.768;26.198;2023-02-28T13:14:42;101634.44;;;12.69;100.00
9249;BME280;4660;41.768;26.198;2023-02-28T13:17:21;101620.09;;;12.48;100.00
9249;BME280;4660;41.768;26.198;2023-02-28T13:24:56;101638.66;;;12.62;100.00
9249;BME280;4660;41.768;26.198;2023-02-28T13:27:39;101631.50;;;12.51;100.00
9249;BME280;4660;41.768;26.198;2023-02-28T13:36:30;101632.63;;;12.17;100.00
9249;BME280;4660;41.768;26.198;2023-02-28T13:42:47;101638.97;;;11.95;100.00
9249;BME280;4660;41.768;26.198;2023-02-28T13:45:27;101621.72;;;11.75;100.00
9249;BME280;4660;41.768;26.198;2023-02-28T13:48:26;101641.88;;;12.03;100.00
9249;BME280;4660;41.768;26.198;2023-02-28T13:50:59;101645.66;;;12.11;100.00
9249;BME280;4660;41.768;26.198;2023-02-28T13:54:04;101648.22;;;12.13;100.00
9249;BME280;4660;41.768;26.198;2023-02-28T13:57:07;101644.22;;;11.96;100.00
9249;BME280;4660;41.768;26.198;2023-02-28T14:05:20;101633.84;;;12.24;100.00
9249;BME280;4660;41.768;26.198;2023-02-28T14:07:58;101601.34;;;12.14;100.00
9249;BME280;4660;41.768;26.198;2023-02-28T14:10:50;101639.41;;;12.11;100.00
9249;BME280;4660;41.768;26.198;2023-02-28T14:16:13;101650.22;;;12.00;100.00
9249;BME280;4660;41.768;26.198;2023-02-28T14:18:49;101637.78;;;11.88;100.00
9249;BME280;4660;41.768;26.198;2023-02-28T14:21:36;101630.66;;;11.87;100.00
9249;BME280;4660;41.768;26.198;2023-02-28T14:36:32;101647.50;;;12.11;100.00
9249;BME280;4660;41.768;26.198;2023-02-28T14:39:07;101624.63;;;11.94;100.00
9249;BME280;4660;41.768;26.198;2023-02-28T14:41:43;101646.31;;;11.93;100.00
9249;BME280;4660;41.768;26.198;2023-02-28T14:44:35;101645.84;;;11.76;100.00
9249;BME280;4660;41.768;26.198;2023-02-28T14:47:02;101577.78;;;11.52;100.00
9249;BME280;4660;41.768;26.198;2023-02-28T14:49:44;101623.19;;;11.79;100.00
9249;BME280;4660;41.768;26.198;2023-02-28T14:52:19;101640.34;;;11.89;100.00
9249;BME280;4660;41.768;26.198;2023-02-28T14:54:52;101623.78;;;11.71;100.00
9249;BME280;4660;41.768;26.198;2023-02-28T14:57:41;101647.88;;;12.06;100.00
9249;BME280;4660;41.768;26.198;2023-02-28T15:00:28;101644.59;;;12.03;100.00
9249;BME280;4660;41.768;26.198;2023-02-28T15:02:58;101644.75;;;11.90;100.00
9249;BME280;4660;41.768;26.198;2023-02-28T15:05:33;101652.75;;;11.80;100.00
9249;BME280;4660;41.768;26.198;2023-02-28T15:08:11;101650.38;;;11.76;100.00
9249;BME280;4660;41.768;26.198;2023-02-28T15:10:56;101651.72;;;11.70;100.00
9249;BME280;4660;41.768;26.198;2023-02-28T15:13:36;101646.84;;;11.87;100.00
9249;BME280;4660;41.768;26.198;2023-02-28T15:19:50;101654.25;;;12.05;100.00
9249;BME280;4660;41.768;26.198;2023-02-28T15:22:27;101671.84;;;12.21;100.00
9249;BME280;4660;41.768;26.198;2023-02-28T15:24:55;101676.38;;;12.20;100.00
9249;BME280;4660;41.768;26.198;2023-02-28T15:27:32;101653.66;;;12.02;100.00
9249;BME280;4660;41.768;26.198;2023-02-28T15:30:08;101648.28;;;11.91;100.00